sensor_id;sensor_type;location;lat;lon;timestamp;P1;durP1;ratioP1;P2;durP2;ratioP2
71963;SDS011;59834;52.124;5.422;2023-07-30T00:00:28;4.78;;;0.47;;
71963;SDS011;59834;52.124;5.422;2023-07-30T00:02:54;7.68;;;0.60;;
71963;SDS011;59834;52.124;5.422;2023-07-30T00:05:21;4.47;;;0.50;;
71963;SDS011;59834;52.124;5.422;2023-07-30T00:07:48;3.95;;;0.50;;
71963;SDS011;59834;52.124;5.422;2023-07-30T00:10:15;10.65;;;2.03;;
71963;SDS011;59834;52.124;5.422;2023-07-30T00:12:41;5.13;;;1.23;;
71963;SDS011;59834;52.124;5.422;2023-07-30T00:15:08;7.18;;;1.02;;
71963;SDS011;59834;52.124;5.422;2023-07-30T00:17:35;5.33;;;0.40;;
71963;SDS011;59834;52.124;5.422;2023-07-30T00:20:02;6.82;;;0.50;;
71963;SDS011;59834;52.124;5.422;2023-07-30T00:22:30;11.40;;;0.80;;
71963;SDS011;59834;52.124;5.422;2023-07-30T00:24:57;5.00;;;0.55;;
71963;SDS011;59834;52.124;5.422;2023-07-30T00:27:23;7.88;;;0.50;;
71963;SDS011;59834;52.124;5.422;2023-07-30T00:29:50;3.50;;;0.77;;
71963;SDS011;59834;52.124;5.422;2023-07-30T00:32:16;4.53;;;0.40;;
71963;SDS011;59834;52.124;5.422;2023-07-30T00:34:43;5.32;;;0.43;;
71963;SDS011;59834;52.124;5.422;2023-07-30T00:37:10;2.90;;;0.40;;
71963;SDS011;59834;52.124;5.422;2023-07-30T00:39:37;3.25;;;1.05;;
71963;SDS011;59834;52.124;5.422;2023-07-30T00:42:06;3.10;;;0.40;;
71963;SDS011;59834;52.124;5.422;2023-07-30T00:44:32;5.10;;;0.40;;
71963;SDS011;59834;52.124;5.422;2023-07-30T00:46:59;3.75;;;0.60;;
71963;SDS011;59834;52.124;5.422;2023-07-30T00:49:26;4.10;;;0.50;;
71963;SDS011;59834;52.124;5.422;2023-07-30T00:51:52;5.15;;;1.38;;
71963;SDS011;59834;52.124;5.422;2023-07-30T00:54:23;5.80;;;0.73;;
71963;SDS011;59834;52.124;5.422;2023-07-30T00:56:51;3.78;;;0.47;;
71963;SDS011;59834;52.124;5.422;2023-07-30T00:59:19;5.18;;;0.68;;
71963;SDS011;59834;52.124;5.422;2023-07-30T01:01:47;4.47;;;0.60;;
71963;SDS011;59834;52.124;5.422;2023-07-30T01:04:14;9.00;;;1.02;;
71963;SDS011;59834;52.124;5.422;2023-07-30T01:06:41;4.47;;;0.37;;
71963;SDS011;59834;52.124;5.422;2023-07-30T01:09:09;3.40;;;0.77;;
71963;SDS011;59834;52.124;5.422;2023-07-30T01:11:36;9.23;;;1.55;;
71963;SDS011;59834;52.124;5.422;2023-07-30T01:14:05;6.00;;;0.43;;
71963;SDS011;59834;52.124;5.422;2023-07-30T01:16:32;6.03;;;1.42;;
71963;SDS011;59834;52.124;5.422;2023-07-30T01:18:59;2.90;;;0.40;;
71963;SDS011;59834;52.124;5.422;2023-07-30T01:21:33;5.80;;;0.68;;
71963;SDS011;59834;52.124;5.422;2023-07-30T01:24:01;2.92;;;0.50;;
71963;SDS011;59834;52.124;5.422;2023-07-30T01:26:32;9.13;;;0.90;;
71963;SDS011;59834;52.124;5.422;2023-07-30T01:29:07;7.03;;;0.80;;
71963;SDS011;59834;52.124;5.422;2023-07-30T01:31:38;2.83;;;0.50;;
71963;SDS011;59834;52.124;5.422;2023-07-30T01:34:06;6.38;;;0.68;;
71963;SDS011;59834;52.124;5.422;2023-07-30T01:36:35;4.95;;;1.00;;
71963;SDS011;59834;52.124;5.422;2023-07-30T01:39:04;5.50;;;0.55;;
71963;SDS011;59834;52.124;5.422;2023-07-30T01:41:32;4.68;;;0.50;;
71963;SDS011;59834;52.124;5.422;2023-07-30T01:43:58;5.00;;;0.90;;
71963;SDS011;59834;52.124;5.422;2023-07-30T01:46:25;4.47;;;0.68;;
71963;SDS011;59834;52.124;5.422;2023-07-30T01:48:52;4.55;;;0.77;;
71963;SDS011;59834;52.124;5.422;2023-07-30T01:51:18;26.70;;;1.60;;
71963;SDS011;59834;52.124;5.422;2023-07-30T01:53:46;9.40;;;0.77;;
71963;SDS011;59834;52.124;5.422;2023-07-30T01:56:12;6.93;;;0.93;;
71963;SDS011;59834;52.124;5.422;2023-07-30T01:58:41;4.65;;;0.65;;
71963;SDS011;59834;52.124;5.422;2023-07-30T02:01:07;7.10;;;1.02;;
71963;SDS011;59834;52.124;5.422;2023-07-30T02:03:34;6.97;;;0.98;;
71963;SDS011;59834;52.124;5.422;2023-07-30T02:06:01;9.73;;;1.08;;
71963;SDS011;59834;52.124;5.422;2023-07-30T02:08:27;8.77;;;1.00;;
71963;SDS011;59834;52.124;5.422;2023-07-30T02:11:00;8.52;;;0.65;;
71963;SDS011;59834;52.124;5.422;2023-07-30T02:13:26;7.82;;;0.95;;
71963;SDS011;59834;52.124;5.422;2023-07-30T02:15:53;9.23;;;0.93;;
71963;SDS011;59834;52.124;5.422;2023-07-30T02:18:20;6.15;;;0.77;;
71963;SDS011;59834;52.124;5.422;2023-07-30T02:20:46;9.93;;;0.90;;
71963;SDS011;59834;52.124;5.422;2023-07-30T02:23:16;13.00;;;1.17;;
71963;SDS011;59834;52.124;5.422;2023-07-30T02:25:43;8.93;;;0.82;;
71963;SDS011;59834;52.124;5.422;2023-07-30T02:28:10;7.63;;;1.05;;
71963;SDS011;59834;52.124;5.422;2023-07-30T02:30:41;5.28;;;0.85;;
71963;SDS011;59834;52.124;5.422;2023-07-30T02:33:07;7.07;;;0.73;;
71963;SDS011;59834;52.124;5.422;2023-07-30T02:35:34;15.85;;;1.05;;
71963;SDS011;59834;52.124;5.422;2023-07-30T02:38:00;8.27;;;1.10;;
71963;SDS011;59834;52.124;5.422;2023-07-30T02:40:28;10.13;;;1.52;;
71963;SDS011;59834;52.124;5.422;2023-07-30T02:42:55;6.22;;;1.33;;
71963;SDS011;59834;52.124;5.422;2023-07-30T02:45:22;10.30;;;1.20;;
71963;SDS011;59834;52.124;5.422;2023-07-30T02:47:49;7.97;;;0.80;;
71963;SDS011;59834;52.124;5.422;2023-07-30T02:50:16;8.43;;;1.17;;
71963;SDS011;59834;52.124;5.422;2023-07-30T02:52:47;7.88;;;1.05;;
71963;SDS011;59834;52.124;5.422;2023-07-30T02:55:13;11.07;;;2.35;;
71963;SDS011;59834;52.124;5.422;2023-07-30T02:57:41;8.40;;;1.70;;
71963;SDS011;59834;52.124;5.422;2023-07-30T03:00:07;16.52;;;1.52;;
71963;SDS011;59834;52.124;5.422;2023-07-30T03:02:37;11.15;;;1.77;;
71963;SDS011;59834;52.124;5.422;2023-07-30T03:05:04;8.95;;;1.45;;
71963;SDS011;59834;52.124;5.422;2023-07-30T03:07:31;9.25;;;1.63;;
71963;SDS011;59834;52.124;5.422;2023-07-30T03:09:57;9.77;;;0.90;;
71963;SDS011;59834;52.124;5.422;2023-07-30T03:12:24;9.68;;;1.30;;
71963;SDS011;59834;52.124;5.422;2023-07-30T03:14:51;13.73;;;1.65;;
71963;SDS011;59834;52.124;5.422;2023-07-30T03:17:18;7.97;;;1.42;;
71963;SDS011;59834;52.124;5.422;2023-07-30T03:19:45;10.02;;;2.00;;
71963;SDS011;59834;52.124;5.422;2023-07-30T03:22:13;9.63;;;1.13;;
71963;SDS011;59834;52.124;5.422;2023-07-30T03:24:39;12.93;;;1.80;;
71963;SDS011;59834;52.124;5.422;2023-07-30T03:27:08;7.22;;;1.85;;
71963;SDS011;59834;52.124;5.422;2023-07-30T03:29:36;13.75;;;1.65;;
71963;SDS011;59834;52.124;5.422;2023-07-30T03:32:02;8.85;;;1.27;;
71963;SDS011;59834;52.124;5.422;2023-07-30T03:34:29;14.33;;;2.10;;
71963;SDS011;59834;52.124;5.422;2023-07-30T03:36:55;18.48;;;2.30;;
71963;SDS011;59834;52.124;5.422;2023-07-30T03:39:26;17.77;;;1.98;;
71963;SDS011;59834;52.124;5.422;2023-07-30T03:41:53;15.13;;;1.98;;
71963;SDS011;59834;52.124;5.422;2023-07-30T03:44:19;14.70;;;1.55;;
71963;SDS011;59834;52.124;5.422;2023-07-30T03:46:46;10.07;;;2.60;;
71963;SDS011;59834;52.124;5.422;2023-07-30T03:49:13;14.75;;;1.75;;
71963;SDS011;59834;52.124;5.422;2023-07-30T03:51:40;14.13;;;2.33;;
71963;SDS011;59834;52.124;5.422;2023-07-30T03:54:07;13.77;;;1.65;;
71963;SDS011;59834;52.124;5.422;2023-07-30T03:56:34;12.77;;;1.77;;
71963;SDS011;59834;52.124;5.422;2023-07-30T03:59:00;18.40;;;3.13;;
71963;SDS011;59834;52.124;5.422;2023-07-30T04:01:27;16.95;;;2.15;;
71963;SDS011;59834;52.124;5.422;2023-07-30T04:03:55;21.00;;;1.52;;
71963;SDS011;59834;52.124;5.422;2023-07-30T04:06:23;13.70;;;2.30;;
71963;SDS011;59834;52.124;5.422;2023-07-30T04:08:50;18.55;;;2.25;;
71963;SDS011;59834;52.124;5.422;2023-07-30T04:11:16;21.47;;;2.73;;
71963;SDS011;59834;52.124;5.422;2023-07-30T04:13:43;8.30;;;2.15;;
71963;SDS011;59834;52.124;5.422;2023-07-30T04:16:10;11.57;;;1.90;;
71963;SDS011;59834;52.124;5.422;2023-07-30T04:18:37;18.58;;;2.40;;
71963;SDS011;59834;52.124;5.422;2023-07-30T04:21:03;24.10;;;3.65;;
71963;SDS011;59834;52.124;5.422;2023-07-30T04:23:30;14.27;;;2.93;;
71963;SDS011;59834;52.124;5.422;2023-07-30T04:25:56;16.02;;;2.30;;
71963;SDS011;59834;52.124;5.422;2023-07-30T04:28:23;12.32;;;2.70;;
71963;SDS011;59834;52.124;5.422;2023-07-30T04:30:50;17.98;;;3.70;;
71963;SDS011;59834;52.124;5.422;2023-07-30T04:33:16;14.57;;;2.97;;
71963;SDS011;59834;52.124;5.422;2023-07-30T04:35:43;14.07;;;2.57;;
71963;SDS011;59834;52.124;5.422;2023-07-30T04:38:10;17.63;;;3.30;;
71963;SDS011;59834;52.124;5.422;2023-07-30T04:40:37;11.77;;;1.95;;
71963;SDS011;59834;52.124;5.422;2023-07-30T04:43:03;17.35;;;2.60;;
71963;SDS011;59834;52.124;5.422;2023-07-30T04:45:30;14.43;;;2.72;;
71963;SDS011;59834;52.124;5.422;2023-07-30T04:47:57;10.87;;;2.23;;
71963;SDS011;59834;52.124;5.422;2023-07-30T04:50:24;18.60;;;2.58;;
71963;SDS011;59834;52.124;5.422;2023-07-30T04:52:51;25.23;;;3.17;;
71963;SDS011;59834;52.124;5.422;2023-07-30T04:55:18;14.85;;;2.25;;
71963;SDS011;59834;52.124;5.422;2023-07-30T04:57:44;18.60;;;3.42;;
71963;SDS011;59834;52.124;5.422;2023-07-30T05:00:11;15.43;;;2.50;;
71963;SDS011;59834;52.124;5.422;2023-07-30T05:02:38;25.85;;;3.38;;
71963;SDS011;59834;52.124;5.422;2023-07-30T05:05:05;8.63;;;2.60;;
71963;SDS011;59834;52.124;5.422;2023-07-30T05:07:32;13.88;;;3.05;;
71963;SDS011;59834;52.124;5.422;2023-07-30T05:09:58;17.33;;;2.78;;
71963;SDS011;59834;52.124;5.422;2023-07-30T05:12:25;14.13;;;2.50;;
71963;SDS011;59834;52.124;5.422;2023-07-30T05:14:51;18.92;;;2.85;;
71963;SDS011;59834;52.124;5.422;2023-07-30T05:17:18;14.13;;;2.88;;
71963;SDS011;59834;52.124;5.422;2023-07-30T05:19:45;13.45;;;3.60;;
71963;SDS011;59834;52.124;5.422;2023-07-30T05:22:11;16.90;;;3.13;;
71963;SDS011;59834;52.124;5.422;2023-07-30T05:24:38;15.40;;;3.30;;
71963;SDS011;59834;52.124;5.422;2023-07-30T05:27:05;22.23;;;3.40;;
71963;SDS011;59834;52.124;5.422;2023-07-30T05:29:33;17.50;;;2.40;;
71963;SDS011;59834;52.124;5.422;2023-07-30T05:32:00;10.18;;;2.65;;
71963;SDS011;59834;52.124;5.422;2023-07-30T05:34:26;25.00;;;4.30;;
71963;SDS011;59834;52.124;5.422;2023-07-30T05:36:53;25.23;;;3.63;;
71963;SDS011;59834;52.124;5.422;2023-07-30T05:39:22;16.20;;;3.22;;
71963;SDS011;59834;52.124;5.422;2023-07-30T05:41:48;17.80;;;4.57;;
71963;SDS011;59834;52.124;5.422;2023-07-30T05:44:15;16.77;;;2.58;;
71963;SDS011;59834;52.124;5.422;2023-07-30T05:46:41;14.43;;;3.25;;
71963;SDS011;59834;52.124;5.422;2023-07-30T05:49:08;16.27;;;3.10;;
71963;SDS011;59834;52.124;5.422;2023-07-30T05:51:35;20.30;;;4.75;;
71963;SDS011;59834;52.124;5.422;2023-07-30T05:54:02;20.08;;;3.15;;
71963;SDS011;59834;52.124;5.422;2023-07-30T05:56:29;14.55;;;3.35;;
71963;SDS011;59834;52.124;5.422;2023-07-30T05:58:55;16.98;;;2.90;;
71963;SDS011;59834;52.124;5.422;2023-07-30T06:01:22;15.93;;;3.63;;
71963;SDS011;59834;52.124;5.422;2023-07-30T06:03:49;14.27;;;3.78;;
71963;SDS011;59834;52.124;5.422;2023-07-30T06:06:16;15.32;;;3.65;;
71963;SDS011;59834;52.124;5.422;2023-07-30T06:08:42;13.05;;;3.72;;
71963;SDS011;59834;52.124;5.422;2023-07-30T06:11:09;21.90;;;4.57;;
71963;SDS011;59834;52.124;5.422;2023-07-30T06:13:36;19.73;;;5.33;;
71963;SDS011;59834;52.124;5.422;2023-07-30T06:16:03;13.38;;;3.58;;
71963;SDS011;59834;52.124;5.422;2023-07-30T06:18:30;16.60;;;3.63;;
71963;SDS011;59834;52.124;5.422;2023-07-30T06:20:56;18.88;;;3.15;;
71963;SDS011;59834;52.124;5.422;2023-07-30T06:23:23;13.45;;;4.60;;
71963;SDS011;59834;52.124;5.422;2023-07-30T06:25:49;16.90;;;3.83;;
71963;SDS011;59834;52.124;5.422;2023-07-30T06:28:16;14.00;;;3.83;;
71963;SDS011;59834;52.124;5.422;2023-07-30T06:30:42;23.15;;;4.50;;
71963;SDS011;59834;52.124;5.422;2023-07-30T06:33:09;21.23;;;3.95;;
71963;SDS011;59834;52.124;5.422;2023-07-30T06:35:36;19.20;;;4.07;;
71963;SDS011;59834;52.124;5.422;2023-07-30T06:38:03;23.87;;;4.77;;
71963;SDS011;59834;52.124;5.422;2023-07-30T06:40:29;14.55;;;3.55;;
71963;SDS011;59834;52.124;5.422;2023-07-30T06:42:56;17.50;;;4.10;;
71963;SDS011;59834;52.124;5.422;2023-07-30T06:45:22;12.60;;;4.20;;
71963;SDS011;59834;52.124;5.422;2023-07-30T06:47:49;18.58;;;3.63;;
71963;SDS011;59834;52.124;5.422;2023-07-30T06:50:16;14.70;;;4.07;;
71963;SDS011;59834;52.124;5.422;2023-07-30T06:52:42;26.23;;;4.88;;
71963;SDS011;59834;52.124;5.422;2023-07-30T06:55:09;20.45;;;4.85;;
71963;SDS011;59834;52.124;5.422;2023-07-30T06:57:35;11.40;;;3.63;;
71963;SDS011;59834;52.124;5.422;2023-07-30T07:00:02;24.08;;;5.30;;
71963;SDS011;59834;52.124;5.422;2023-07-30T07:02:29;17.37;;;3.30;;
71963;SDS011;59834;52.124;5.422;2023-07-30T07:04:56;19.08;;;3.55;;
71963;SDS011;59834;52.124;5.422;2023-07-30T07:07:23;25.35;;;3.45;;
71963;SDS011;59834;52.124;5.422;2023-07-30T07:09:49;16.27;;;4.32;;
71963;SDS011;59834;52.124;5.422;2023-07-30T07:12:16;15.07;;;3.35;;
71963;SDS011;59834;52.124;5.422;2023-07-30T07:14:43;13.00;;;3.43;;
71963;SDS011;59834;52.124;5.422;2023-07-30T07:17:09;15.85;;;3.65;;
71963;SDS011;59834;52.124;5.422;2023-07-30T07:19:36;12.40;;;3.60;;
71963;SDS011;59834;52.124;5.422;2023-07-30T07:22:06;17.98;;;3.85;;
71963;SDS011;59834;52.124;5.422;2023-07-30T07:24:33;12.20;;;2.80;;
71963;SDS011;59834;52.124;5.422;2023-07-30T07:26:59;8.43;;;2.73;;
71963;SDS011;59834;52.124;5.422;2023-07-30T07:29:26;11.88;;;2.67;;
71963;SDS011;59834;52.124;5.422;2023-07-30T07:31:53;12.60;;;2.92;;
71963;SDS011;59834;52.124;5.422;2023-07-30T07:34:19;11.57;;;2.92;;
71963;SDS011;59834;52.124;5.422;2023-07-30T07:36:46;16.60;;;2.25;;
71963;SDS011;59834;52.124;5.422;2023-07-30T07:39:13;13.80;;;2.47;;
71963;SDS011;59834;52.124;5.422;2023-07-30T07:41:40;9.35;;;2.25;;
71963;SDS011;59834;52.124;5.422;2023-07-30T07:44:06;13.00;;;2.17;;
71963;SDS011;59834;52.124;5.422;2023-07-30T07:46:33;16.65;;;2.53;;
71963;SDS011;59834;52.124;5.422;2023-07-30T07:48:59;13.68;;;2.33;;
71963;SDS011;59834;52.124;5.422;2023-07-30T07:51:26;14.07;;;2.40;;
71963;SDS011;59834;52.124;5.422;2023-07-30T07:53:52;11.25;;;2.08;;
71963;SDS011;59834;52.124;5.422;2023-07-30T07:56:19;9.15;;;1.73;;
71963;SDS011;59834;52.124;5.422;2023-07-30T07:58:46;13.25;;;2.40;;
71963;SDS011;59834;52.124;5.422;2023-07-30T08:01:12;12.98;;;2.08;;
71963;SDS011;59834;52.124;5.422;2023-07-30T08:03:39;14.07;;;1.90;;
71963;SDS011;59834;52.124;5.422;2023-07-30T08:06:06;11.82;;;3.35;;
71963;SDS011;59834;52.124;5.422;2023-07-30T08:08:32;13.55;;;2.25;;
71963;SDS011;59834;52.124;5.422;2023-07-30T08:11:04;7.80;;;1.73;;
71963;SDS011;59834;52.124;5.422;2023-07-30T08:13:32;8.27;;;1.52;;
71963;SDS011;59834;52.124;5.422;2023-07-30T08:15:59;12.33;;;2.33;;
71963;SDS011;59834;52.124;5.422;2023-07-30T08:18:26;14.02;;;2.53;;
71963;SDS011;59834;52.124;5.422;2023-07-30T08:20:53;15.45;;;2.80;;
71963;SDS011;59834;52.124;5.422;2023-07-30T08:23:21;14.35;;;2.03;;
71963;SDS011;59834;52.124;5.422;2023-07-30T08:25:48;14.75;;;2.28;;
71963;SDS011;59834;52.124;5.422;2023-07-30T08:28:16;9.77;;;1.73;;
71963;SDS011;59834;52.124;5.422;2023-07-30T08:30:44;11.25;;;2.55;;
71963;SDS011;59834;52.124;5.422;2023-07-30T08:33:11;12.40;;;1.80;;
71963;SDS011;59834;52.124;5.422;2023-07-30T08:35:37;11.85;;;2.05;;
71963;SDS011;59834;52.124;5.422;2023-07-30T08:38:06;11.10;;;2.08;;
71963;SDS011;59834;52.124;5.422;2023-07-30T08:40:34;13.93;;;1.77;;
71963;SDS011;59834;52.124;5.422;2023-07-30T08:43:01;8.55;;;1.33;;
71963;SDS011;59834;52.124;5.422;2023-07-30T08:45:29;11.55;;;1.23;;
71963;SDS011;59834;52.124;5.422;2023-07-30T08:47:56;11.85;;;1.55;;
71963;SDS011;59834;52.124;5.422;2023-07-30T08:50:23;7.97;;;1.30;;
71963;SDS011;59834;52.124;5.422;2023-07-30T08:52:51;12.17;;;1.77;;
71963;SDS011;59834;52.124;5.422;2023-07-30T08:55:18;10.68;;;1.98;;
71963;SDS011;59834;52.124;5.422;2023-07-30T08:57:45;11.77;;;1.73;;
71963;SDS011;59834;52.124;5.422;2023-07-30T09:00:12;8.10;;;1.23;;
71963;SDS011;59834;52.124;5.422;2023-07-30T09:02:43;7.70;;;1.02;;
71963;SDS011;59834;52.124;5.422;2023-07-30T09:05:15;10.07;;;1.57;;
71963;SDS011;59834;52.124;5.422;2023-07-30T09:07:41;17.65;;;1.83;;
71963;SDS011;59834;52.124;5.422;2023-07-30T09:10:08;6.55;;;1.58;;
71963;SDS011;59834;52.124;5.422;2023-07-30T09:12:36;9.93;;;0.98;;
71963;SDS011;59834;52.124;5.422;2023-07-30T09:15:03;13.40;;;1.50;;
71963;SDS011;59834;52.124;5.422;2023-07-30T09:17:33;6.73;;;1.53;;
71963;SDS011;59834;52.124;5.422;2023-07-30T09:20:03;6.47;;;1.00;;
71963;SDS011;59834;52.124;5.422;2023-07-30T09:22:33;12.18;;;1.50;;
71963;SDS011;59834;52.124;5.422;2023-07-30T09:25:05;12.23;;;2.05;;
71963;SDS011;59834;52.124;5.422;2023-07-30T09:27:33;11.75;;;2.22;;
71963;SDS011;59834;52.124;5.422;2023-07-30T09:30:00;6.07;;;1.37;;
71963;SDS011;59834;52.124;5.422;2023-07-30T09:32:29;12.52;;;0.98;;
71963;SDS011;59834;52.124;5.422;2023-07-30T09:35:04;10.55;;;2.05;;
71963;SDS011;59834;52.124;5.422;2023-07-30T09:37:38;17.58;;;2.63;;
71963;SDS011;59834;52.124;5.422;2023-07-30T09:40:07;8.38;;;1.48;;
71963;SDS011;59834;52.124;5.422;2023-07-30T09:42:36;7.53;;;1.33;;
71963;SDS011;59834;52.124;5.422;2023-07-30T09:45:06;8.60;;;1.48;;
71963;SDS011;59834;52.124;5.422;2023-07-30T09:47:39;12.07;;;1.65;;
71963;SDS011;59834;52.124;5.422;2023-07-30T09:50:05;9.40;;;1.52;;
71963;SDS011;59834;52.124;5.422;2023-07-30T09:52:33;11.07;;;1.63;;
71963;SDS011;59834;52.124;5.422;2023-07-30T09:54:59;8.37;;;1.17;;
71963;SDS011;59834;52.124;5.422;2023-07-30T09:57:26;5.70;;;1.33;;
71963;SDS011;59834;52.124;5.422;2023-07-30T09:59:53;8.20;;;1.05;;
71963;SDS011;59834;52.124;5.422;2023-07-30T10:02:21;7.88;;;0.95;;
71963;SDS011;59834;52.124;5.422;2023-07-30T10:04:48;6.97;;;1.30;;
71963;SDS011;59834;52.124;5.422;2023-07-30T10:07:21;8.53;;;0.50;;
71963;SDS011;59834;52.124;5.422;2023-07-30T10:09:51;6.85;;;0.80;;
71963;SDS011;59834;52.124;5.422;2023-07-30T10:12:22;3.90;;;0.60;;
71963;SDS011;59834;52.124;5.422;2023-07-30T10:14:52;5.55;;;0.75;;
71963;SDS011;59834;52.124;5.422;2023-07-30T10:17:19;8.85;;;1.48;;
71963;SDS011;59834;52.124;5.422;2023-07-30T10:19:46;7.20;;;0.67;;
71963;SDS011;59834;52.124;5.422;2023-07-30T10:22:20;4.28;;;0.47;;
71963;SDS011;59834;52.124;5.422;2023-07-30T10:25:05;6.03;;;2.00;;
71963;SDS011;59834;52.124;5.422;2023-07-30T10:27:37;7.10;;;0.55;;
71963;SDS011;59834;52.124;5.422;2023-07-30T10:30:15;4.70;;;0.90;;
71963;SDS011;59834;52.124;5.422;2023-07-30T10:35:34;6.00;;;0.55;;
71963;SDS011;59834;52.124;5.422;2023-07-30T10:38:15;5.05;;;0.60;;
71963;SDS011;59834;52.124;5.422;2023-07-30T10:41:04;8.20;;;0.68;;
71963;SDS011;59834;52.124;5.422;2023-07-30T10:43:33;3.40;;;0.40;;
71963;SDS011;59834;52.124;5.422;2023-07-30T10:46:01;3.87;;;0.40;;
71963;SDS011;59834;52.124;5.422;2023-07-30T10:48:39;7.20;;;0.60;;
71963;SDS011;59834;52.124;5.422;2023-07-30T10:51:16;9.15;;;0.50;;
71963;SDS011;59834;52.124;5.422;2023-07-30T10:53:48;5.38;;;0.40;;
71963;SDS011;59834;52.124;5.422;2023-07-30T10:56:17;3.83;;;0.50;;
71963;SDS011;59834;52.124;5.422;2023-07-30T10:58:53;3.53;;;0.73;;
71963;SDS011;59834;52.124;5.422;2023-07-30T11:01:23;3.65;;;0.32;;
71963;SDS011;59834;52.124;5.422;2023-07-30T11:03:51;5.05;;;0.50;;
71963;SDS011;59834;52.124;5.422;2023-07-30T11:06:22;3.47;;;0.30;;
71963;SDS011;59834;52.124;5.422;2023-07-30T11:08:50;4.75;;;0.63;;
71963;SDS011;59834;52.124;5.422;2023-07-30T11:11:16;8.13;;;0.60;;
71963;SDS011;59834;52.124;5.422;2023-07-30T11:13:43;4.25;;;0.50;;
71963;SDS011;59834;52.124;5.422;2023-07-30T11:16:13;1.92;;;0.30;;
71963;SDS011;59834;52.124;5.422;2023-07-30T11:18:41;3.88;;;0.40;;
71963;SDS011;59834;52.124;5.422;2023-07-30T11:21:09;6.43;;;0.43;;
71963;SDS011;59834;52.124;5.422;2023-07-30T11:23:38;2.17;;;0.30;;
71963;SDS011;59834;52.124;5.422;2023-07-30T11:26:06;3.85;;;0.57;;
71963;SDS011;59834;52.124;5.422;2023-07-30T11:28:35;4.90;;;0.32;;
71963;SDS011;59834;52.124;5.422;2023-07-30T11:31:05;4.15;;;0.68;;
71963;SDS011;59834;52.124;5.422;2023-07-30T11:33:31;2.28;;;0.30;;
71963;SDS011;59834;52.124;5.422;2023-07-30T11:36:01;4.63;;;0.50;;
71963;SDS011;59834;52.124;5.422;2023-07-30T11:38:29;3.25;;;0.75;;
71963;SDS011;59834;52.124;5.422;2023-07-30T11:40:58;4.90;;;0.68;;
71963;SDS011;59834;52.124;5.422;2023-07-30T11:43:25;2.30;;;0.30;;
71963;SDS011;59834;52.124;5.422;2023-07-30T11:48:39;5.13;;;0.37;;
71963;SDS011;59834;52.124;5.422;2023-07-30T11:51:07;3.80;;;0.40;;
71963;SDS011;59834;52.124;5.422;2023-07-30T11:53:51;2.38;;;0.30;;
71963;SDS011;59834;52.124;5.422;2023-07-30T11:56:22;3.20;;;0.30;;
71963;SDS011;59834;52.124;5.422;2023-07-30T11:58:57;7.43;;;0.73;;
71963;SDS011;59834;52.124;5.422;2023-07-30T12:01:29;1.23;;;0.30;;
71963;SDS011;59834;52.124;5.422;2023-07-30T12:03:57;7.35;;;0.60;;
71963;SDS011;59834;52.124;5.422;2023-07-30T12:09:15;4.20;;;0.40;;
71963;SDS011;59834;52.124;5.422;2023-07-30T12:11:50;7.65;;;0.47;;
71963;SDS011;59834;52.124;5.422;2023-07-30T12:14:21;3.10;;;0.30;;
71963;SDS011;59834;52.124;5.422;2023-07-30T12:16:52;5.90;;;0.40;;
71963;SDS011;59834;52.124;5.422;2023-07-30T12:19:18;3.42;;;0.65;;
71963;SDS011;59834;52.124;5.422;2023-07-30T12:21:45;2.45;;;0.60;;
71963;SDS011;59834;52.124;5.422;2023-07-30T12:24:12;10.60;;;0.50;;
71963;SDS011;59834;52.124;5.422;2023-07-30T12:26:39;4.97;;;0.40;;
71963;SDS011;59834;52.124;5.422;2023-07-30T12:29:05;3.40;;;0.30;;
71963;SDS011;59834;52.124;5.422;2023-07-30T12:31:32;1.98;;;0.22;;
71963;SDS011;59834;52.124;5.422;2023-07-30T12:33:59;2.00;;;0.30;;
71963;SDS011;59834;52.124;5.422;2023-07-30T12:36:25;3.27;;;0.30;;
71963;SDS011;59834;52.124;5.422;2023-07-30T12:38:52;2.67;;;0.20;;
71963;SDS011;59834;52.124;5.422;2023-07-30T12:41:20;3.28;;;0.20;;
71963;SDS011;59834;52.124;5.422;2023-07-30T12:43:53;4.78;;;0.30;;
71963;SDS011;59834;52.124;5.422;2023-07-30T12:46:22;3.67;;;0.30;;
71963;SDS011;59834;52.124;5.422;2023-07-30T12:48:50;3.77;;;0.20;;
71963;SDS011;59834;52.124;5.422;2023-07-30T12:51:17;6.07;;;0.30;;
71963;SDS011;59834;52.124;5.422;2023-07-30T12:53:44;2.75;;;0.28;;
71963;SDS011;59834;52.124;5.422;2023-07-30T12:56:10;1.48;;;0.30;;
71963;SDS011;59834;52.124;5.422;2023-07-30T12:58:38;4.53;;;0.45;;
71963;SDS011;59834;52.124;5.422;2023-07-30T13:01:06;2.90;;;0.40;;
71963;SDS011;59834;52.124;5.422;2023-07-30T13:03:33;3.53;;;0.32;;
71963;SDS011;59834;52.124;5.422;2023-07-30T13:06:00;7.28;;;0.40;;
71963;SDS011;59834;52.124;5.422;2023-07-30T13:08:27;9.60;;;0.63;;
71963;SDS011;59834;52.124;5.422;2023-07-30T13:10:53;3.08;;;0.13;;
71963;SDS011;59834;52.124;5.422;2023-07-30T13:13:20;2.73;;;0.50;;
71963;SDS011;59834;52.124;5.422;2023-07-30T13:15:46;2.70;;;0.30;;
71963;SDS011;59834;52.124;5.422;2023-07-30T13:18:13;1.45;;;0.20;;
71963;SDS011;59834;52.124;5.422;2023-07-30T13:20:39;2.35;;;0.20;;
71963;SDS011;59834;52.124;5.422;2023-07-30T13:23:07;2.13;;;0.38;;
71963;SDS011;59834;52.124;5.422;2023-07-30T13:25:33;3.67;;;0.53;;
71963;SDS011;59834;52.124;5.422;2023-07-30T13:28:00;3.97;;;0.20;;
71963;SDS011;59834;52.124;5.422;2023-07-30T13:30:27;1.35;;;0.30;;
71963;SDS011;59834;52.124;5.422;2023-07-30T13:32:54;1.30;;;0.17;;
71963;SDS011;59834;52.124;5.422;2023-07-30T13:35:22;5.10;;;0.73;;
71963;SDS011;59834;52.124;5.422;2023-07-30T13:37:49;2.97;;;0.43;;
71963;SDS011;59834;52.124;5.422;2023-07-30T13:40:15;5.30;;;0.32;;
71963;SDS011;59834;52.124;5.422;2023-07-30T13:42:42;1.95;;;0.30;;
71963;SDS011;59834;52.124;5.422;2023-07-30T13:45:08;6.18;;;0.30;;
71963;SDS011;59834;52.124;5.422;2023-07-30T13:47:37;2.40;;;0.30;;
71963;SDS011;59834;52.124;5.422;2023-07-30T13:50:04;20.23;;;1.30;;
71963;SDS011;59834;52.124;5.422;2023-07-30T13:52:31;2.83;;;1.05;;
71963;SDS011;59834;52.124;5.422;2023-07-30T13:54:57;2.58;;;0.50;;
71963;SDS011;59834;52.124;5.422;2023-07-30T13:57:24;2.78;;;0.32;;
71963;SDS011;59834;52.124;5.422;2023-07-30T13:59:52;5.88;;;0.52;;
71963;SDS011;59834;52.124;5.422;2023-07-30T14:02:19;2.90;;;0.30;;
71963;SDS011;59834;52.124;5.422;2023-07-30T14:04:46;3.70;;;0.40;;
71963;SDS011;59834;52.124;5.422;2023-07-30T14:07:13;4.25;;;0.50;;
71963;SDS011;59834;52.124;5.422;2023-07-30T14:09:40;4.72;;;0.30;;
71963;SDS011;59834;52.124;5.422;2023-07-30T14:12:07;3.30;;;0.40;;
71963;SDS011;59834;52.124;5.422;2023-07-30T14:14:34;2.27;;;0.30;;
71963;SDS011;59834;52.124;5.422;2023-07-30T14:17:00;3.92;;;0.38;;
71963;SDS011;59834;52.124;5.422;2023-07-30T14:19:33;3.25;;;0.20;;
71963;SDS011;59834;52.124;5.422;2023-07-30T14:22:00;3.95;;;0.30;;
71963;SDS011;59834;52.124;5.422;2023-07-30T14:24:27;4.32;;;0.57;;
71963;SDS011;59834;52.124;5.422;2023-07-30T14:26:54;4.80;;;0.50;;
71963;SDS011;59834;52.124;5.422;2023-07-30T14:29:21;4.93;;;0.35;;
71963;SDS011;59834;52.124;5.422;2023-07-30T14:31:48;3.50;;;0.43;;
71963;SDS011;59834;52.124;5.422;2023-07-30T14:34:14;7.93;;;0.65;;
71963;SDS011;59834;52.124;5.422;2023-07-30T14:36:42;2.40;;;0.30;;
71963;SDS011;59834;52.124;5.422;2023-07-30T14:39:09;2.80;;;0.40;;
71963;SDS011;59834;52.124;5.422;2023-07-30T14:41:37;8.65;;;0.50;;
71963;SDS011;59834;52.124;5.422;2023-07-30T14:44:05;2.90;;;0.47;;
71963;SDS011;59834;52.124;5.422;2023-07-30T14:46:32;5.93;;;0.35;;
71963;SDS011;59834;52.124;5.422;2023-07-30T14:48:59;4.38;;;0.38;;
71963;SDS011;59834;52.124;5.422;2023-07-30T14:51:27;3.70;;;0.43;;
71963;SDS011;59834;52.124;5.422;2023-07-30T14:53:56;5.88;;;0.65;;